sensor_id;sensor_type;location;lat;lon;timestamp;pressure;altitude;pressure_sealevel;temperature
65290;BMP180;51893;59.754;10.110;2022-12-13T00:01:56;101774.20;;;-7.22
65290;BMP180;51893;59.754;10.110;2022-12-13T00:04:24;101774.00;;;-7.30
65290;BMP180;51893;59.754;10.110;2022-12-13T00:06:53;101774.80;;;-7.30
65290;BMP180;51893;59.754;10.110;2022-12-13T00:09:22;101777.00;;;-7.30
65290;BMP180;51893;59.754;10.110;2022-12-13T00:11:51;101780.40;;;-7.40
65290;BMP180;51893;59.754;10.110;2022-12-13T00:14:20;101777.40;;;-7.50
65290;BMP180;51893;59.754;10.110;2022-12-13T00:16:48;101774.60;;;-7.50
65290;BMP180;51893;59.754;10.110;2022-12-13T00:19:17;101771.60;;;-7.52
65290;BMP180;51893;59.754;10.110;2022-12-13T00:21:45;101768.60;;;-7.50
65290;BMP180;51893;59.754;10.110;2022-12-13T00:24:13;101767.20;;;-7.50
65290;BMP180;51893;59.754;10.110;2022-12-13T00:26:40;101758.60;;;-7.60
65290;BMP180;51893;59.754;10.110;2022-12-13T00:29:10;101754.60;;;-7.60
65290;BMP180;51893;59.754;10.110;2022-12-13T00:31:37;101751.00;;;-7.50
65290;BMP180;51893;59.754;10.110;2022-12-13T00:34:24;101743.60;;;-7.40
65290;BMP180;51893;59.754;10.110;2022-12-13T00:36:53;101738.20;;;-7.42
65290;BMP180;51893;59.754;10.110;2022-12-13T00:39:21;101738.60;;;-7.40
65290;BMP180;51893;59.754;10.110;2022-12-13T00:41:50;101741.20;;;-7.40
65290;BMP180;51893;59.754;10.110;2022-12-13T00:44:21;101732.40;;;-7.38
65290;BMP180;51893;59.754;10.110;2022-12-13T00:46:49;101729.40;;;-7.30
65290;BMP180;51893;59.754;10.110;2022-12-13T00:49:17;101723.20;;;-7.30
65290;BMP180;51893;59.754;10.110;2022-12-13T00:51:50;101721.40;;;-7.38
65290;BMP180;51893;59.754;10.110;2022-12-13T00:54:17;101716.60;;;-7.40
65290;BMP180;51893;59.754;10.110;2022-12-13T00:56:44;101713.60;;;-7.40
65290;BMP180;51893;59.754;10.110;2022-12-13T00:59:14;101707.40;;;-7.40
65290;BMP180;51893;59.754;10.110;2022-12-13T01:01:42;101702.00;;;-7.40
65290;BMP180;51893;59.754;10.110;2022-12-13T01:04:09;101702.20;;;-7.40
65290;BMP180;51893;59.754;10.110;2022-12-13T01:06:45;101696.80;;;-7.50
65290;BMP180;51893;59.754;10.110;2022-12-13T01:09:26;101694.40;;;-7.60
65290;BMP180;51893;59.754;10.110;2022-12-13T01:11:58;101697.60;;;-7.70
65290;BMP180;51893;59.754;10.110;2022-12-13T01:14:26;101698.80;;;-7.90
65290;BMP180;51893;59.754;10.110;2022-12-13T01:16:54;101694.80;;;-8.00
65290;BMP180;51893;59.754;10.110;2022-12-13T01:19:26;101695.20;;;-8.00
65290;BMP180;51893;59.754;10.110;2022-12-13T01:21:58;101697.60;;;-8.10
65290;BMP180;51893;59.754;10.110;2022-12-13T01:24:27;101695.80;;;-8.04
65290;BMP180;51893;59.754;10.110;2022-12-13T01:26:55;101685.00;;;-8.00
65290;BMP180;51893;59.754;10.110;2022-12-13T01:29:25;101683.40;;;-8.00
65290;BMP180;51893;59.754;10.110;2022-12-13T01:31:53;101678.20;;;-7.90
65290;BMP180;51893;59.754;10.110;2022-12-13T01:34:21;101675.40;;;-7.88
65290;BMP180;51893;59.754;10.110;2022-12-13T01:36:54;101672.60;;;-7.80
65290;BMP180;51893;59.754;10.110;2022-12-13T01:39:26;101672.80;;;-7.80
65290;BMP180;51893;59.754;10.110;2022-12-13T01:41:55;101668.40;;;-7.90
65290;BMP180;51893;59.754;10.110;2022-12-13T01:47:41;101663.80;;;-8.02
65290;BMP180;51893;59.754;10.110;2022-12-13T01:50:45;101667.80;;;-8.18
65290;BMP180;51893;59.754;10.110;2022-12-13T01:53:19;101662.40;;;-8.20
65290;BMP180;51893;59.754;10.110;2022-12-13T01:55:53;101660.00;;;-8.30
65290;BMP180;51893;59.754;10.110;2022-12-13T01:58:23;101658.60;;;-8.32
65290;BMP180;51893;59.754;10.110;2022-12-13T02:00:52;101652.00;;;-8.40
65290;BMP180;51893;59.754;10.110;2022-12-13T02:03:21;101646.60;;;-8.46
65290;BMP180;51893;59.754;10.110;2022-12-13T02:06:04;101646.40;;;-8.50
65290;BMP180;51893;59.754;10.110;2022-12-13T02:08:33;101642.80;;;-8.56
65290;BMP180;51893;59.754;10.110;2022-12-13T02:11:03;101641.60;;;-8.60
65290;BMP180;51893;59.754;10.110;2022-12-13T02:13:30;101635.60;;;-8.60
65290;BMP180;51893;59.754;10.110;2022-12-13T02:16:09;101630.00;;;-8.60
65290;BMP180;51893;59.754;10.110;2022-12-13T02:21:33;101617.60;;;-8.60
65290;BMP180;51893;59.754;10.110;2022-12-13T02:26:58;101607.40;;;-8.50
65290;BMP180;51893;59.754;10.110;2022-12-13T02:30:08;101604.20;;;-8.50
65290;BMP180;51893;59.754;10.110;2022-12-13T02:36:28;101597.40;;;-8.60
65290;BMP180;51893;59.754;10.110;2022-12-13T02:39:18;101594.20;;;-8.60
65290;BMP180;51893;59.754;10.110;2022-12-13T02:42:28;101592.20;;;-8.70
65290;BMP180;51893;59.754;10.110;2022-12-13T02:45:09;101588.40;;;-8.70
65290;BMP180;51893;59.754;10.110;2022-12-13T02:47:51;101577.00;;;-8.76
65290;BMP180;51893;59.754;10.110;2022-12-13T02:50:25;101575.20;;;-8.80
65290;BMP180;51893;59.754;10.110;2022-12-13T02:52:53;101574.20;;;-8.80
65290;BMP180;51893;59.754;10.110;2022-12-13T02:55:20;101570.40;;;-8.80
65290;BMP180;51893;59.754;10.110;2022-12-13T02:57:54;101569.80;;;-8.80
65290;BMP180;51893;59.754;10.110;2022-12-13T03:00:39;101569.00;;;-8.90
65290;BMP180;51893;59.754;10.110;2022-12-13T03:06:37;101559.60;;;-8.98
65290;BMP180;51893;59.754;10.110;2022-12-13T03:12:36;101548.80;;;-8.90
65290;BMP180;51893;59.754;10.110;2022-12-13T03:15:37;101547.00;;;-8.94
65290;BMP180;51893;59.754;10.110;2022-12-13T03:18:20;101539.60;;;-9.00
65290;BMP180;51893;59.754;10.110;2022-12-13T03:20:51;101538.60;;;-9.00
65290;BMP180;51893;59.754;10.110;2022-12-13T03:23:20;101533.40;;;-9.00
65290;BMP180;51893;59.754;10.110;2022-12-13T03:25:53;101533.60;;;-9.00
65290;BMP180;51893;59.754;10.110;2022-12-13T03:28:20;101531.60;;;-9.02
65290;BMP180;51893;59.754;10.110;2022-12-13T03:30:47;101530.40;;;-9.10
65290;BMP180;51893;59.754;10.110;2022-12-13T03:33:14;101527.80;;;-9.10
65290;BMP180;51893;59.754;10.110;2022-12-13T03:35:42;101522.60;;;-9.10
65290;BMP180;51893;59.754;10.110;2022-12-13T03:38:15;101522.60;;;-9.10
65290;BMP180;51893;59.754;10.110;2022-12-13T03:41:04;101519.60;;;-9.02
65290;BMP180;51893;59.754;10.110;2022-12-13T03:43:33;101518.20;;;-9.00
65290;BMP180;51893;59.754;10.110;2022-12-13T03:46:04;101520.40;;;-9.00
65290;BMP180;51893;59.754;10.110;2022-12-13T03:48:31;101510.00;;;-9.00
65290;BMP180;51893;59.754;10.110;2022-12-13T03:51:00;101503.40;;;-8.98
65290;BMP180;51893;59.754;10.110;2022-12-13T03:53:27;101505.20;;;-8.98
65290;BMP180;51893;59.754;10.110;2022-12-13T03:56:07;101504.60;;;-9.00
65290;BMP180;51893;59.754;10.110;2022-12-13T03:58:34;101504.20;;;-9.00
65290;BMP180;51893;59.754;10.110;2022-12-13T04:01:07;101497.60;;;-9.00
65290;BMP180;51893;59.754;10.110;2022-12-13T04:03:36;101500.80;;;-9.02
65290;BMP180;51893;59.754;10.110;2022-12-13T04:06:07;101493.20;;;-9.04
65290;BMP180;51893;59.754;10.110;2022-12-13T04:08:37;101487.40;;;-9.10
65290;BMP180;51893;59.754;10.110;2022-12-13T04:11:06;101494.00;;;-9.10
65290;BMP180;51893;59.754;10.110;2022-12-13T04:13:54;101491.80;;;-9.20
65290;BMP180;51893;59.754;10.110;2022-12-13T04:16:22;101484.80;;;-9.20
65290;BMP180;51893;59.754;10.110;2022-12-13T04:18:49;101476.60;;;-9.30
65290;BMP180;51893;59.754;10.110;2022-12-13T04:21:16;101469.40;;;-9.30
65290;BMP180;51893;59.754;10.110;2022-12-13T04:23:44;101468.60;;;-9.32
65290;BMP180;51893;59.754;10.110;2022-12-13T04:26:11;101463.80;;;-9.30
65290;BMP180;51893;59.754;10.110;2022-12-13T04:28:38;101463.00;;;-9.30
65290;BMP180;51893;59.754;10.110;2022-12-13T04:31:05;101456.40;;;-9.30
65290;BMP180;51893;59.754;10.110;2022-12-13T04:33:31;101452.60;;;-9.30
65290;BMP180;51893;59.754;10.110;2022-12-13T04:35:58;101451.60;;;-9.30
65290;BMP180;51893;59.754;10.110;2022-12-13T04:38:26;101442.60;;;-9.34
65290;BMP180;51893;59.754;10.110;2022-12-13T04:40:53;101439.00;;;-9.32
65290;BMP180;51893;59.754;10.110;2022-12-13T04:43:29;101437.80;;;-9.30
65290;BMP180;51893;59.754;10.110;2022-12-13T04:45:56;101435.60;;;-9.30
65290;BMP180;51893;59.754;10.110;2022-12-13T04:48:24;101426.60;;;-9.30
65290;BMP180;51893;59.754;10.110;2022-12-13T04:51:00;101428.40;;;-9.30
65290;BMP180;51893;59.754;10.110;2022-12-13T04:53:29;101420.20;;;-9.20
65290;BMP180;51893;59.754;10.110;2022-12-13T04:55:57;101413.80;;;-9.10
65290;BMP180;51893;59.754;10.110;2022-12-13T04:58:26;101413.20;;;-9.20
65290;BMP180;51893;59.754;10.110;2022-12-13T05:00:53;101408.80;;;-9.22
65290;BMP180;51893;59.754;10.110;2022-12-13T05:03:20;101401.60;;;-9.24
65290;BMP180;51893;59.754;10.110;2022-12-13T05:05:47;101400.60;;;-9.20
65290;BMP180;51893;59.754;10.110;2022-12-13T05:08:15;101393.60;;;-9.20
65290;BMP180;51893;59.754;10.110;2022-12-13T05:10:42;101391.20;;;-9.20
65290;BMP180;51893;59.754;10.110;2022-12-13T05:13:08;101384.80;;;-9.20
65290;BMP180;51893;59.754;10.110;2022-12-13T05:15:35;101390.20;;;-9.20
65290;BMP180;51893;59.754;10.110;2022-12-13T05:18:05;101383.80;;;-9.30
65290;BMP180;51893;59.754;10.110;2022-12-13T05:20:38;101378.80;;;-9.40
65290;BMP180;51893;59.754;10.110;2022-12-13T05:23:04;101375.80;;;-9.40
65290;BMP180;51893;59.754;10.110;2022-12-13T05:25:31;101377.20;;;-9.52
65290;BMP180;51893;59.754;10.110;2022-12-13T05:27:58;101369.60;;;-9.60
65290;BMP180;51893;59.754;10.110;2022-12-13T05:30:25;101369.60;;;-9.60
65290;BMP180;51893;59.754;10.110;2022-12-13T05:32:54;101366.40;;;-9.70
65290;BMP180;51893;59.754;10.110;2022-12-13T05:35:21;101358.60;;;-9.80
65290;BMP180;51893;59.754;10.110;2022-12-13T05:37:51;101365.20;;;-9.96
65290;BMP180;51893;59.754;10.110;2022-12-13T05:40:23;101363.40;;;-10.00
65290;BMP180;51893;59.754;10.110;2022-12-13T05:42:49;101366.60;;;-9.98
65290;BMP180;51893;59.754;10.110;2022-12-13T05:45:17;101360.40;;;-10.00
65290;BMP180;51893;59.754;10.110;2022-12-13T05:47:45;101357.40;;;-10.00
65290;BMP180;51893;59.754;10.110;2022-12-13T05:50:14;101357.60;;;-9.96
65290;BMP180;51893;59.754;10.110;2022-12-13T05:52:42;101359.40;;;-9.96
65290;BMP180;51893;59.754;10.110;2022-12-13T05:55:12;101365.00;;;-9.94
65290;BMP180;51893;59.754;10.110;2022-12-13T05:57:40;101364.80;;;-10.00
65290;BMP180;51893;59.754;10.110;2022-12-13T06:00:09;101368.20;;;-10.00
65290;BMP180;51893;59.754;10.110;2022-12-13T06:03:00;101371.40;;;-10.00
65290;BMP180;51893;59.754;10.110;2022-12-13T06:05:29;101369.20;;;-9.92
65290;BMP180;51893;59.754;10.110;2022-12-13T06:07:57;101363.40;;;-10.00
65290;BMP180;51893;59.754;10.110;2022-12-13T06:10:26;101374.40;;;-10.08
65290;BMP180;51893;59.754;10.110;2022-12-13T06:13:05;101377.60;;;-10.10
65290;BMP180;51893;59.754;10.110;2022-12-13T06:15:59;101373.40;;;-10.10
65290;BMP180;51893;59.754;10.110;2022-12-13T06:18:33;101362.20;;;-10.10
65290;BMP180;51893;59.754;10.110;2022-12-13T06:21:05;101356.60;;;-10.20
65290;BMP180;51893;59.754;10.110;2022-12-13T06:23:34;101363.00;;;-10.20
65290;BMP180;51893;59.754;10.110;2022-12-13T06:26:05;101356.20;;;-10.20
65290;BMP180;51893;59.754;10.110;2022-12-13T06:28:32;101351.00;;;-10.22
65290;BMP180;51893;59.754;10.110;2022-12-13T06:31:05;101350.80;;;-10.20
65290;BMP180;51893;59.754;10.110;2022-12-13T06:33:32;101337.00;;;-10.20
65290;BMP180;51893;59.754;10.110;2022-12-13T06:36:08;101339.60;;;-10.20
65290;BMP180;51893;59.754;10.110;2022-12-13T06:38:35;101339.80;;;-10.20
65290;BMP180;51893;59.754;10.110;2022-12-13T06:41:15;101339.00;;;-10.20
65290;BMP180;51893;59.754;10.110;2022-12-13T06:43:47;101338.60;;;-10.10
65290;BMP180;51893;59.754;10.110;2022-12-13T06:46:16;101334.00;;;-10.10
65290;BMP180;51893;59.754;10.110;2022-12-13T06:48:47;101332.00;;;-10.00
65290;BMP180;51893;59.754;10.110;2022-12-13T06:51:15;101334.20;;;-9.90
65290;BMP180;51893;59.754;10.110;2022-12-13T06:53:49;101327.00;;;-9.90
65290;BMP180;51893;59.754;10.110;2022-12-13T06:56:16;101324.00;;;-9.90
65290;BMP180;51893;59.754;10.110;2022-12-13T06:58:45;101323.40;;;-10.00
65290;BMP180;51893;59.754;10.110;2022-12-13T07:01:17;101323.80;;;-10.10
65290;BMP180;51893;59.754;10.110;2022-12-13T07:03:56;101319.60;;;-10.20
65290;BMP180;51893;59.754;10.110;2022-12-13T07:06:24;101319.80;;;-10.20
65290;BMP180;51893;59.754;10.110;2022-12-13T07:08:55;101315.60;;;-10.24
65290;BMP180;51893;59.754;10.110;2022-12-13T07:11:28;101309.80;;;-10.20
65290;BMP180;51893;59.754;10.110;2022-12-13T07:13:56;101308.80;;;-10.20
65290;BMP180;51893;59.754;10.110;2022-12-13T07:16:24;101301.80;;;-10.10
65290;BMP180;51893;59.754;10.110;2022-12-13T07:18:58;101300.00;;;-10.10
65290;BMP180;51893;59.754;10.110;2022-12-13T07:21:30;101293.20;;;-10.02
65290;BMP180;51893;59.754;10.110;2022-12-13T07:23:58;101283.40;;;-10.00
65290;BMP180;51893;59.754;10.110;2022-12-13T07:26:26;101278.00;;;-9.92
65290;BMP180;51893;59.754;10.110;2022-12-13T07:28:55;101286.40;;;-9.90
65290;BMP180;51893;59.754;10.110;2022-12-13T07:31:23;101283.60;;;-9.92
65290;BMP180;51893;59.754;10.110;2022-12-13T07:33:51;101293.20;;;-10.08
65290;BMP180;51893;59.754;10.110;2022-12-13T07:36:22;101292.80;;;-10.10
65290;BMP180;51893;59.754;10.110;2022-12-13T07:38:52;101294.00;;;-10.10
65290;BMP180;51893;59.754;10.110;2022-12-13T07:41:21;101296.00;;;-10.16
65290;BMP180;51893;59.754;10.110;2022-12-13T07:43:52;101292.00;;;-10.30
65290;BMP180;51893;59.754;10.110;2022-12-13T07:46:24;101281.20;;;-10.30
65290;BMP180;51893;59.754;10.110;2022-12-13T07:49:03;101280.60;;;-10.30
65290;BMP180;51893;59.754;10.110;2022-12-13T07:51:35;101276.20;;;-10.30
65290;BMP180;51893;59.754;10.110;2022-12-13T07:54:02;101281.80;;;-10.24
65290;BMP180;51893;59.754;10.110;2022-12-13T07:56:34;101274.00;;;-10.20
65290;BMP180;51893;59.754;10.110;2022-12-13T07:59:02;101275.20;;;-10.14
65290;BMP180;51893;59.754;10.110;2022-12-13T08:01:31;101282.20;;;-10.10
65290;BMP180;51893;59.754;10.110;2022-12-13T08:04:03;101288.40;;;-10.10
65290;BMP180;51893;59.754;10.110;2022-12-13T08:06:35;101295.60;;;-10.20
65290;BMP180;51893;59.754;10.110;2022-12-13T08:09:03;101299.40;;;-10.38
65290;BMP180;51893;59.754;10.110;2022-12-13T08:11:32;101293.00;;;-10.44
65290;BMP180;51893;59.754;10.110;2022-12-13T08:14:00;101291.00;;;-10.50
65290;BMP180;51893;59.754;10.110;2022-12-13T08:16:27;101294.80;;;-10.68
65290;BMP180;51893;59.754;10.110;2022-12-13T08:18:58;101289.80;;;-10.70
65290;BMP180;51893;59.754;10.110;2022-12-13T08:21:40;101289.00;;;-10.70
65290;BMP180;51893;59.754;10.110;2022-12-13T08:24:29;101281.00;;;-10.70
65290;BMP180;51893;59.754;10.110;2022-12-13T08:27:01;101276.00;;;-10.70
65290;BMP180;51893;59.754;10.110;2022-12-13T08:29:32;101262.20;;;-10.64
65290;BMP180;51893;59.754;10.110;2022-12-13T08:32:09;101252.00;;;-10.60
65290;BMP180;51893;59.754;10.110;2022-12-13T08:34:39;101252.00;;;-10.60
65290;BMP180;51893;59.754;10.110;2022-12-13T08:37:07;101244.20;;;-10.52
65290;BMP180;51893;59.754;10.110;2022-12-13T08:39:36;101246.60;;;-10.50
65290;BMP180;51893;59.754;10.110;2022-12-13T08:42:11;101241.40;;;-10.50
65290;BMP180;51893;59.754;10.110;2022-12-13T08:44:48;101235.80;;;-10.40
65290;BMP180;51893;59.754;10.110;2022-12-13T08:47:18;101230.60;;;-10.40
65290;BMP180;51893;59.754;10.110;2022-12-13T08:49:56;101225.80;;;-10.30
65290;BMP180;51893;59.754;10.110;2022-12-13T09:08:23;101185.80;;;-9.46
65290;BMP180;51893;59.754;10.110;2022-12-13T09:11:04;101173.20;;;-9.10
65290;BMP180;51893;59.754;10.110;2022-12-13T09:13:49;101165.60;;;-9.10
65290;BMP180;51893;59.754;10.110;2022-12-13T09:16:20;101163.80;;;-9.10
65290;BMP180;51893;59.754;10.110;2022-12-13T09:18:52;101162.60;;;-8.96
65290;BMP180;51893;59.754;10.110;2022-12-13T09:21:22;101162.40;;;-8.80
65290;BMP180;51893;59.754;10.110;2022-12-13T09:24:02;101160.40;;;-8.80
65290;BMP180;51893;59.754;10.110;2022-12-13T09:26:30;101158.60;;;-8.82
65290;BMP180;51893;59.754;10.110;2022-12-13T09:29:05;101158.40;;;-8.70
65290;BMP180;51893;59.754;10.110;2022-12-13T09:31:38;101155.20;;;-8.70
65290;BMP180;51893;59.754;10.110;2022-12-13T09:34:09;101160.40;;;-8.70
65290;BMP180;51893;59.754;10.110;2022-12-13T09:36:38;101152.60;;;-8.80
65290;BMP180;51893;59.754;10.110;2022-12-13T09:39:10;101154.40;;;-8.80
65290;BMP180;51893;59.754;10.110;2022-12-13T09:41:50;101149.00;;;-8.90
65290;BMP180;51893;59.754;10.110;2022-12-13T09:44:35;101155.60;;;-9.00
65290;BMP180;51893;59.754;10.110;2022-12-13T09:47:44;101158.20;;;-9.10
65290;BMP180;51893;59.754;10.110;2022-12-13T09:50:29;101163.60;;;-9.10
65290;BMP180;51893;59.754;10.110;2022-12-13T09:53:06;101158.00;;;-9.10
65290;BMP180;51893;59.754;10.110;2022-12-13T09:55:49;101151.00;;;-9.06
65290;BMP180;51893;59.754;10.110;2022-12-13T09:58:27;101151.20;;;-9.00
65290;BMP180;51893;59.754;10.110;2022-12-13T10:00:57;101140.80;;;-9.02
65290;BMP180;51893;59.754;10.110;2022-12-13T10:03:27;101140.40;;;-9.10
65290;BMP180;51893;59.754;10.110;2022-12-13T10:06:13;101143.20;;;-9.10
65290;BMP180;51893;59.754;10.110;2022-12-13T10:08:57;101138.00;;;-9.10
65290;BMP180;51893;59.754;10.110;2022-12-13T10:11:29;101133.00;;;-9.10
65290;BMP180;51893;59.754;10.110;2022-12-13T10:14:10;101127.20;;;-9.20
65290;BMP180;51893;59.754;10.110;2022-12-13T10:16:49;101117.60;;;-9.10
65290;BMP180;51893;59.754;10.110;2022-12-13T10:19:36;101109.60;;;-9.10
65290;BMP180;51893;59.754;10.110;2022-12-13T10:22:18;101099.40;;;-9.10
65290;BMP180;51893;59.754;10.110;2022-12-13T10:25:06;101094.80;;;-9.00
65290;BMP180;51893;59.754;10.110;2022-12-13T10:30:10;101073.40;;;-8.90
65290;BMP180;51893;59.754;10.110;2022-12-13T10:33:01;101065.80;;;-8.86
65290;BMP180;51893;59.754;10.110;2022-12-13T10:35:36;101062.00;;;-8.82
65290;BMP180;51893;59.754;10.110;2022-12-13T10:40:43;101061.40;;;-8.74
65290;BMP180;51893;59.754;10.110;2022-12-13T10:43:21;101063.20;;;-8.60
65290;BMP180;51893;59.754;10.110;2022-12-13T10:48:45;101054.00;;;-8.60
65290;BMP180;51893;59.754;10.110;2022-12-13T10:51:18;101048.20;;;-8.58
65290;BMP180;51893;59.754;10.110;2022-12-13T10:53:52;101035.60;;;-8.58
65290;BMP180;51893;59.754;10.110;2022-12-13T10:56:35;101029.40;;;-8.50
65290;BMP180;51893;59.754;10.110;2022-12-13T11:01:53;101024.80;;;-8.40
65290;BMP180;51893;59.754;10.110;2022-12-13T11:04:29;101031.40;;;-8.38
65290;BMP180;51893;59.754;10.110;2022-12-13T11:07:29;101035.00;;;-8.30
65290;BMP180;51893;59.754;10.110;2022-12-13T11:10:26;101029.60;;;-8.28
65290;BMP180;51893;59.754;10.110;2022-12-13T11:13:01;101027.60;;;-8.20
65290;BMP180;51893;59.754;10.110;2022-12-13T11:15:36;101012.60;;;-8.20
65290;BMP180;51893;59.754;10.110;2022-12-13T11:18:18;100991.00;;;-8.20
65290;BMP180;51893;59.754;10.110;2022-12-13T11:20:59;100981.20;;;-8.10
65290;BMP180;51893;59.754;10.110;2022-12-13T11:23:44;100982.40;;;-8.20
65290;BMP180;51893;59.754;10.110;2022-12-13T11:26:22;100982.40;;;-8.14
65290;BMP180;51893;59.754;10.110;2022-12-13T11:35:00;100972.40;;;-8.22
65290;BMP180;51893;59.754;10.110;2022-12-13T11:38:19;100960.00;;;-8.20
65290;BMP180;51893;59.754;10.110;2022-12-13T11:40:50;100968.00;;;-8.20
65290;BMP180;51893;59.754;10.110;2022-12-13T11:43:40;100964.80;;;-8.10
65290;BMP180;51893;59.754;10.110;2022-12-13T11:46:51;100960.80;;;-8.10
65290;BMP180;51893;59.754;10.110;2022-12-13T11:49:37;100952.00;;;-8.00
65290;BMP180;51893;59.754;10.110;2022-12-13T11:55:45;100935.40;;;-8.00
65290;BMP180;51893;59.754;10.110;2022-12-13T11:58:23;100933.20;;;-7.94
65290;BMP180;51893;59.754;10.110;2022-12-13T12:01:24;100932.40;;;-8.10
65290;BMP180;51893;59.754;10.110;2022-12-13T12:07:04;100921.60;;;-8.10
65290;BMP180;51893;59.754;10.110;2022-12-13T12:12:34;100922.60;;;-8.10
65290;BMP180;51893;59.754;10.110;2022-12-13T12:15:24;100921.20;;;-8.10
65290;BMP180;51893;59.754;10.110;2022-12-13T12:17:55;100900.80;;;-8.00
65290;BMP180;51893;59.754;10.110;2022-12-13T12:20:50;100902.20;;;-8.00
65290;BMP180;51893;59.754;10.110;2022-12-13T12:24:09;100895.00;;;-8.04
65290;BMP180;51893;59.754;10.110;2022-12-13T12:30:00;100882.20;;;-8.10
65290;BMP180;51893;59.754;10.110;2022-12-13T12:35:58;100876.40;;;-8.00
65290;BMP180;51893;59.754;10.110;2022-12-13T13:00:20;100822.60;;;-7.60
65290;BMP180;51893;59.754;10.110;2022-12-13T13:03:16;100814.20;;;-7.60
65290;BMP180;51893;59.754;10.110;2022-12-13T13:06:01;100813.80;;;-7.52
65290;BMP180;51893;59.754;10.110;2022-12-13T13:11:23;100818.00;;;-7.70
65290;BMP180;51893;59.754;10.110;2022-12-13T13:14:04;100814.00;;;-7.60
65290;BMP180;51893;59.754;10.110;2022-12-13T13:16:39;100809.00;;;-7.50
65290;BMP180;51893;59.754;10.110;2022-12-13T13:21:58;100795.40;;;-7.70
65290;BMP180;51893;59.754;10.110;2022-12-13T13:24:31;100780.00;;;-7.60
65290;BMP180;51893;59.754;10.110;2022-12-13T13:29:40;100767.00;;;-7.50
65290;BMP180;51893;59.754;10.110;2022-12-13T13:34:40;100750.80;;;-7.40
65290;BMP180;51893;59.754;10.110;2022-12-13T13:43:12;100760.40;;;-7.40
65290;BMP180;51893;59.754;10.110;2022-12-13T13:49:01;100749.60;;;-7.40
65290;BMP180;51893;59.754;10.110;2022-12-13T13:52:18;100746.60;;;-7.30
65290;BMP180;51893;59.754;10.110;2022-12-13T14:15:29;100723.80;;;-7.50
65290;BMP180;51893;59.754;10.110;2022-12-13T14:19:12;100729.60;;;-7.50
65290;BMP180;51893;59.754;10.110;2022-12-13T14:22:25;100741.20;;;-7.50
65290;BMP180;51893;59.754;10.110;2022-12-13T14:25:47;100735.80;;;-7.50
65290;BMP180;51893;59.754;10.110;2022-12-13T14:28:56;100729.80;;;-7.60
65290;BMP180;51893;59.754;10.110;2022-12-13T14:32:36;100718.20;;;-7.60
65290;BMP180;51893;59.754;10.110;2022-12-13T14:35:28;100718.80;;;-7.60
65290;BMP180;51893;59.754;10.110;2022-12-13T14:38:03;100715.40;;;-7.70
65290;BMP180;51893;59.754;10.110;2022-12-13T14:40:56;100710.40;;;-7.70
65290;BMP180;51893;59.754;10.110;2022-12-13T14:43:33;100696.40;;;-7.80
65290;BMP180;51893;59.754;10.110;2022-12-13T14:46:06;100704.00;;;-7.90
65290;BMP180;51893;59.754;10.110;2022-12-13T14:48:43;100704.80;;;-7.80
65290;BMP180;51893;59.754;10.110;2022-12-13T14:51:37;100693.80;;;-7.80
65290;BMP180;51893;59.754;10.110;2022-12-13T14:54:07;100703.60;;;-7.80
65290;BMP180;51893;59.754;10.110;2022-12-13T14:57:02;100702.40;;;-7.80
65290;BMP180;51893;59.754;10.110;2022-12-13T14:59:45;100686.60;;;-7.80
65290;BMP180;51893;59.754;10.110;2022-12-13T15:02:28;100690.40;;;-7.78
65290;BMP180;51893;59.754;10.110;2022-12-13T15:05:06;100675.00;;;-7.70
65290;BMP180;51893;59.754;10.110;2022-12-13T15:07:42;100673.20;;;-7.70
65290;BMP180;51893;59.754;10.110;2022-12-13T15:10:24;100661.80;;;-7.70
65290;BMP180;51893;59.754;10.110;2022-12-13T15:12:54;100643.80;;;-7.60
65290;BMP180;51893;59.754;10.110;2022-12-13T15:15:35;100634.40;;;-7.58
65290;BMP180;51893;59.754;10.110;2022-12-13T15:20:40;100643.20;;;-7.50
65290;BMP180;51893;59.754;10.110;2022-12-13T15:25:38;100635.20;;;-7.48
65290;BMP180;51893;59.754;10.110;2022-12-13T15:28:06;100630.80;;;-7.50
65290;BMP180;51893;59.754;10.110;2022-12-13T15:30:35;100629.60;;;-7.60
65290;BMP180;51893;59.754;10.110;2022-12-13T15:33:26;100632.00;;;-7.60
65290;BMP180;51893;59.754;10.110;2022-12-13T15:36:30;100626.80;;;-7.54
65290;BMP180;51893;59.754;10.110;2022-12-13T15:41:44;100625.20;;;-7.50
65290;BMP180;51893;59.754;10.110;2022-12-13T15:44:44;100615.80;;;-7.40
65290;BMP180;51893;59.754;10.110;2022-12-13T15:47:16;100610.00;;;-7.30
65290;BMP180;51893;59.754;10.110;2022-12-13T15:50:05;100610.20;;;-7.40
65290;BMP180;51893;59.754;10.110;2022-12-13T15:52:39;100600.40;;;-7.30
65290;BMP180;51893;59.754;10.110;2022-12-13T15:57:56;100578.40;;;-7.20
65290;BMP180;51893;59.754;10.110;2022-12-13T16:00:29;100574.80;;;-7.20
65290;BMP180;51893;59.754;10.110;2022-12-13T16:03:10;100568.60;;;-7.20
65290;BMP180;51893;59.754;10.110;2022-12-13T16:05:47;100578.60;;;-7.10
65290;BMP180;51893;59.754;10.110;2022-12-13T16:08:32;100574.00;;;-7.08
65290;BMP180;51893;59.754;10.110;2022-12-13T16:11:01;100569.40;;;-7.08
65290;BMP180;51893;59.754;10.110;2022-12-13T16:13:34;100565.00;;;-7.14
65290;BMP180;51893;59.754;10.110;2022-12-13T16:19:17;100551.60;;;-7.20
65290;BMP180;51893;59.754;10.110;2022-12-13T16:21:45;100556.00;;;-7.10
65290;BMP180;51893;59.754;10.110;2022-12-13T16:24:13;100550.60;;;-7.02
65290;BMP180;51893;59.754;10.110;2022-12-13T16:26:46;100544.80;;;-7.00
65290;BMP180;51893;59.754;10.110;2022-12-13T16:29:17;100537.80;;;-6.90
65290;BMP180;51893;59.754;10.110;2022-12-13T16:31:47;100530.00;;;-6.80
65290;BMP180;51893;59.754;10.110;2022-12-13T16:34:14;100521.40;;;-6.80
65290;BMP180;51893;59.754;10.110;2022-12-13T16:36:56;100523.20;;;-7.00
65290;BMP180;51893;59.754;10.110;2022-12-13T16:39:26;100512.60;;;-7.10
65290;BMP180;51893;59.754;10.110;2022-12-13T16:41:59;100510.20;;;-7.00
65290;BMP180;51893;59.754;10.110;2022-12-13T16:44:54;100506.80;;;-6.90
65290;BMP180;51893;59.754;10.110;2022-12-13T16:47:52;100515.40;;;-6.92
65290;BMP180;51893;59.754;10.110;2022-12-13T16:50:20;100509.20;;;-6.92
65290;BMP180;51893;59.754;10.110;2022-12-13T16:52:48;100509.80;;;-6.90